createdAt,value
2019-05-13T00:00:53.886Z,99.90
2019-05-13T00:03:47.451Z,99.90
2019-05-13T00:06:20.571Z,99.90
2019-05-13T00:08:56.345Z,99.90
2019-05-13T00:11:43.753Z,99.90
2019-05-13T00:14:17.212Z,99.90
2019-05-13T00:16:47.843Z,99.90
2019-05-13T00:19:19.193Z,99.90
2019-05-13T00:21:50.607Z,99.90
2019-05-13T00:24:21.581Z,99.90
2019-05-13T00:26:53.237Z,99.90
2019-05-13T00:29:24.196Z,99.90
2019-05-13T00:31:55.750Z,99.90
2019-05-13T00:34:27.082Z,99.90
2019-05-13T01:03:04.340Z,99.90
2019-05-13T01:05:37.090Z,99.90
2019-05-13T01:08:08.118Z,99.90
2019-05-13T01:10:39.482Z,99.90
2019-05-13T01:13:10.134Z,99.90
2019-05-13T01:15:44.073Z,99.90
2019-05-13T01:18:14.621Z,99.90
2019-05-13T01:20:45.583Z,99.90
2019-05-13T01:23:16.565Z,99.90
2019-05-13T01:25:48.227Z,99.90
2019-05-13T01:28:19.760Z,99.90
2019-05-13T01:30:55.005Z,99.90
2019-05-13T01:33:25.301Z,99.90
2019-05-13T01:35:56.271Z,99.90
2019-05-13T01:38:28.846Z,99.90
2019-05-13T01:41:00.827Z,99.90
2019-05-13T01:43:33.505Z,99.90
2019-05-13T01:46:05.316Z,99.90
2019-05-13T01:48:43.755Z,99.90
2019-05-13T01:51:15.003Z,99.90
2019-05-13T01:53:46.321Z,99.90
2019-05-13T01:56:17.594Z,99.90
2019-05-13T01:58:51.299Z,99.90
2019-05-13T02:01:24.144Z,99.90
2019-05-13T02:03:55.611Z,99.90
2019-05-13T02:06:26.838Z,99.90
2019-05-13T02:08:57.827Z,99.90
2019-05-13T02:11:29.473Z,99.90
2019-05-13T02:14:00.888Z,99.90
2019-05-13T02:16:34.972Z,99.90
2019-05-13T02:19:05.754Z,99.90
2019-05-13T02:21:36.667Z,99.90
2019-05-13T02:24:08.339Z,99.90
2019-05-13T02:26:39.101Z,99.90
2019-05-13T02:29:10.122Z,99.90
2019-05-13T02:31:51.073Z,99.90
2019-05-13T02:34:14.940Z,99.90
2019-05-13T02:36:45.587Z,99.90
2019-05-13T02:39:16.516Z,99.90
2019-05-13T02:41:47.902Z,99.90
2019-05-13T02:44:22.467Z,99.90
2019-05-13T02:46:53.446Z,99.90
2019-05-13T02:49:24.740Z,99.90
2019-05-13T02:51:55.626Z,99.90
2019-05-13T02:54:26.999Z,99.90
2019-05-13T02:56:58.236Z,99.90
2019-05-13T02:59:29.564Z,99.90
2019-05-13T03:02:03.665Z,99.90
2019-05-13T03:04:34.199Z,99.90
2019-05-13T03:07:05.176Z,99.90
2019-05-13T03:09:36.787Z,99.90
2019-05-13T03:12:08.430Z,99.90
2019-05-13T03:14:45.123Z,99.90
2019-05-13T03:17:22.055Z,99.90
2019-05-13T03:19:52.938Z,99.90
2019-05-13T03:22:24.807Z,99.90
2019-05-13T03:24:56.151Z,99.90
2019-05-13T03:27:27.769Z,99.90
2019-05-13T03:30:03.815Z,99.90
2019-05-13T03:32:42.893Z,99.90
2019-05-13T03:35:08.358Z,99.90
2019-05-13T03:37:42.368Z,99.90
2019-05-13T03:40:14.498Z,99.90
2019-05-13T03:42:47.271Z,99.90
2019-05-13T03:45:18.250Z,99.90
2019-05-13T03:47:52.763Z,99.90
2019-05-13T03:50:24.124Z,99.90
2019-05-13T03:52:56.669Z,99.90
2019-05-13T03:55:28.812Z,99.90
2019-05-13T03:58:02.975Z,99.90
2019-05-13T04:00:33.893Z,99.90
2019-05-13T04:03:05.417Z,99.90
2019-05-13T04:05:37.927Z,99.90
2019-05-13T04:08:09.064Z,99.90
2019-05-13T04:10:42.168Z,99.90
2019-05-13T04:13:12.737Z,99.90
2019-05-13T04:15:44.985Z,99.90
2019-05-13T04:18:15.682Z,99.90
2019-05-13T04:20:46.830Z,99.90
2019-05-13T04:23:18.692Z,99.90
2019-05-13T04:25:53.688Z,99.90
2019-05-13T04:28:26.989Z,99.90
2019-05-13T04:30:58.479Z,99.90
2019-05-13T04:33:29.200Z,99.90
2019-05-13T04:36:02.563Z,99.90
2019-05-13T04:38:33.959Z,99.90
2019-05-13T04:41:05.799Z,99.90
2019-05-13T04:43:37.055Z,99.90
2019-05-13T04:46:08.745Z,99.90
2019-05-13T04:48:43.874Z,99.90
2019-05-13T04:51:14.555Z,99.90
2019-05-13T04:53:45.930Z,99.90
2019-05-13T04:56:16.878Z,99.90
2019-05-13T04:58:48.530Z,99.90
2019-05-13T05:01:58.901Z,99.90
2019-05-13T05:04:52.231Z,99.90
2019-05-13T05:08:03.598Z,99.90
2019-05-13T05:11:16.350Z,99.90
2019-05-13T05:14:12.274Z,99.90
2019-05-13T05:17:22.555Z,99.90
2019-05-13T05:20:32.322Z,99.90
2019-05-13T05:23:37.207Z,99.90
2019-05-13T05:27:04.098Z,99.90
2019-05-13T05:30:11.469Z,96.40
2019-05-13T05:33:31.683Z,93.90
2019-05-13T05:36:32.164Z,92.60
2019-05-13T05:39:22.789Z,92.60
2019-05-13T05:41:58.082Z,92.20
2019-05-13T05:44:32.554Z,92.10
2019-05-13T05:47:05.348Z,90.10
2019-05-13T05:49:41.057Z,88.30
2019-05-13T05:52:13.894Z,88.70
2019-05-13T05:54:44.799Z,83.50
2019-05-13T05:57:15.813Z,83.20
2019-05-13T05:59:46.744Z,85.60
2019-05-13T06:02:23.097Z,87.80
2019-05-13T06:04:54.759Z,87.20
2019-05-13T06:07:26.021Z,82.90
2019-05-13T06:09:56.896Z,83.90
2019-05-13T06:12:28.450Z,82.30
2019-05-13T06:15:03.419Z,84.80
2019-05-13T06:17:34.654Z,83.60
2019-05-13T06:20:05.849Z,81.70
2019-05-13T06:22:36.926Z,82.40
2019-05-13T06:25:08.557Z,80.40
2019-05-13T06:27:42.260Z,78.60
2019-05-13T06:30:13.372Z,78.60
2019-05-13T06:32:44.981Z,76.00
2019-05-13T06:35:16.810Z,74.50
2019-05-13T06:37:48.396Z,76.60
2019-05-13T06:40:21.448Z,76.50
2019-05-13T06:42:52.958Z,73.90
2019-05-13T06:45:24.279Z,72.90
2019-05-13T06:47:56.134Z,72.40
2019-05-13T06:50:27.362Z,72.90
2019-05-13T06:53:01.540Z,70.00
2019-05-13T06:55:32.639Z,69.70
2019-05-13T06:58:03.994Z,71.00
2019-05-13T07:00:35.589Z,67.20
2019-05-13T07:03:06.251Z,68.80
2019-05-13T07:05:37.586Z,68.30
2019-05-13T07:08:11.966Z,68.60
2019-05-13T07:10:42.882Z,66.10
2019-05-13T07:13:14.428Z,67.20
2019-05-13T07:15:45.013Z,67.30
2019-05-13T07:18:17.022Z,64.20
2019-05-13T07:20:47.932Z,65.00
2019-05-13T07:23:22.230Z,66.60
2019-05-13T07:26:02.211Z,64.10
2019-05-13T07:28:33.076Z,66.10
2019-05-13T07:31:04.500Z,62.90
2019-05-13T07:33:36.070Z,61.90
2019-05-13T07:36:06.711Z,63.30
2019-05-13T07:38:37.834Z,64.30
2019-05-13T07:41:11.829Z,63.60
2019-05-13T07:43:42.963Z,64.70
2019-05-13T07:46:14.302Z,63.60
2019-05-13T07:48:45.896Z,63.70
2019-05-13T07:51:17.364Z,62.40
2019-05-13T07:53:51.619Z,61.80
2019-05-13T07:56:22.403Z,63.70
2019-05-13T07:58:54.093Z,61.90
2019-05-13T08:01:26.480Z,61.70
2019-05-13T08:03:58.169Z,61.70
2019-05-13T08:06:32.137Z,61.50
2019-05-13T08:09:02.065Z,60.70
2019-05-13T08:11:36.911Z,58.80
2019-05-13T08:14:06.721Z,58.10
2019-05-13T08:16:37.949Z,58.70
2019-05-13T08:19:12.341Z,60.10
2019-05-13T08:21:43.486Z,60.20
2019-05-13T08:24:14.803Z,58.80
2019-05-13T08:26:49.944Z,56.80
2019-05-13T08:29:21.602Z,58.60
2019-05-13T08:31:52.730Z,57.70
2019-05-13T08:34:24.234Z,60.30
2019-05-13T08:36:55.533Z,61.30
2019-05-13T08:39:31.698Z,59.30
2019-05-13T08:42:11.820Z,58.40
2019-05-13T08:44:32.938Z,56.30
2019-05-13T08:47:04.061Z,57.50
2019-05-13T08:49:35.712Z,58.80
2019-05-13T08:52:06.711Z,57.50
2019-05-13T08:54:38.264Z,57.50
2019-05-13T08:57:11.626Z,59.80
2019-05-13T08:59:43.012Z,60.40
2019-05-13T09:02:14.763Z,59.40
2019-05-13T09:04:45.486Z,60.00
2019-05-13T09:07:16.480Z,58.80
2019-05-13T09:10:12.436Z,58.50
2019-05-13T09:12:43.602Z,59.90
2019-05-13T09:15:14.545Z,58.50
2019-05-13T09:17:45.847Z,57.80
2019-05-13T09:20:16.989Z,58.30
2019-05-13T09:22:48.273Z,58.60
2019-05-13T09:25:21.400Z,58.60
2019-05-13T09:27:52.814Z,59.20
2019-05-13T09:30:27.302Z,57.90
2019-05-13T09:32:57.177Z,58.60
2019-05-13T09:35:28.483Z,58.70
2019-05-13T09:38:03.013Z,60.70
2019-05-13T09:40:33.859Z,60.80
2019-05-13T09:43:04.523Z,61.00
2019-05-13T09:45:35.940Z,58.70
2019-05-13T09:48:07.391Z,59.30
2019-05-13T09:50:39.322Z,57.90
2019-05-13T09:53:11.559Z,56.70
2019-05-13T09:55:43.017Z,58.60
2019-05-13T09:58:19.165Z,57.50
2019-05-13T10:00:52.437Z,57.00
2019-05-13T10:03:29.131Z,59.00
2019-05-13T10:05:57.450Z,59.50
2019-05-13T10:08:28.828Z,57.00
2019-05-13T10:11:01.655Z,56.20
2019-05-13T10:13:33.570Z,56.80
2019-05-13T10:16:04.696Z,57.10
2019-05-13T10:18:35.649Z,57.50
2019-05-13T10:21:07.359Z,57.30
2019-05-13T10:23:38.341Z,58.70
2019-05-13T10:26:14.152Z,59.00
2019-05-13T10:28:46.060Z,59.00
2019-05-13T10:31:17.198Z,58.70
2019-05-13T10:33:50.783Z,57.40
2019-05-13T10:36:22.308Z,57.10
2019-05-13T10:38:54.030Z,57.50
2019-05-13T10:41:24.865Z,58.30
2019-05-13T10:43:56.471Z,57.60
2019-05-13T10:46:27.885Z,56.10
2019-05-13T10:49:01.918Z,57.20
2019-05-13T10:51:34.891Z,58.30
2019-05-13T10:54:06.296Z,57.30
2019-05-13T10:56:37.615Z,57.30
2019-05-13T10:59:14.767Z,55.70
2019-05-13T11:01:46.486Z,55.80
2019-05-13T11:04:22.228Z,53.90
2019-05-13T11:06:53.267Z,52.70
2019-05-13T11:09:24.405Z,52.40
2019-05-13T11:11:55.558Z,54.30
2019-05-13T11:14:27.317Z,54.90
2019-05-13T11:16:59.364Z,54.30
2019-05-13T11:19:36.246Z,55.30
2019-05-13T11:22:05.155Z,55.80
2019-05-13T11:24:36.207Z,54.90
2019-05-13T11:27:07.565Z,55.70
2019-05-13T11:29:38.477Z,56.10
2019-05-13T11:32:12.992Z,57.10
2019-05-13T11:34:42.807Z,57.40
2019-05-13T11:37:14.304Z,57.20
2019-05-13T11:39:45.614Z,57.50
2019-05-13T11:42:28.231Z,57.90
2019-05-13T11:44:59.170Z,58.60
2019-05-13T11:47:32.277Z,58.80
2019-05-13T11:50:03.291Z,58.60
2019-05-13T11:52:34.715Z,59.30
2019-05-13T11:55:05.940Z,58.70
2019-05-13T11:57:37.329Z,58.30
2019-05-13T12:00:13.509Z,58.30
2019-05-13T12:02:50.664Z,58.70
2019-05-13T12:05:18.511Z,57.80
2019-05-13T12:07:56.146Z,58.90
2019-05-13T12:10:26.731Z,58.90
2019-05-13T12:12:58.740Z,57.90
2019-05-13T12:15:45.671Z,58.60
2019-05-13T12:18:03.159Z,58.10
2019-05-13T12:20:33.809Z,58.50
2019-05-13T12:23:05.542Z,58.00
2019-05-13T12:25:36.443Z,57.50
2019-05-13T12:28:07.765Z,57.30
2019-05-13T12:30:39.288Z,57.20
2019-05-13T12:33:13.455Z,57.00
2019-05-13T12:35:44.352Z,55.90
2019-05-13T12:38:15.709Z,55.70
2019-05-13T12:40:46.462Z,55.70
2019-05-13T12:43:17.474Z,56.30
2019-05-13T12:45:53.043Z,56.10
2019-05-13T12:48:23.144Z,56.00
2019-05-13T12:50:54.508Z,56.40
2019-05-13T12:53:25.118Z,57.30
2019-05-13T12:55:57.308Z,57.50
2019-05-13T12:58:28.924Z,57.90
2019-05-13T13:01:01.446Z,55.40
2019-05-13T13:03:32.666Z,53.80
2019-05-13T13:06:25.640Z,52.50
2019-05-13T13:08:43.550Z,51.30
2019-05-13T13:11:16.960Z,52.70
2019-05-13T13:14:00.236Z,52.40
2019-05-13T13:16:21.727Z,52.70
2019-05-13T13:18:53.790Z,53.30
2019-05-13T13:21:33.247Z,54.30
2019-05-13T13:23:58.311Z,52.90
2019-05-13T13:26:33.496Z,53.00
2019-05-13T13:29:02.828Z,53.00
2019-05-13T13:31:34.544Z,52.90
2019-05-13T13:34:12.001Z,53.60
2019-05-13T13:36:39.516Z,54.10
2019-05-13T13:39:15.378Z,53.80
2019-05-13T13:41:53.510Z,53.60
2019-05-13T13:44:24.685Z,54.00
2019-05-13T13:46:56.015Z,53.90
2019-05-13T13:49:28.002Z,54.00
2019-05-13T13:51:58.606Z,54.00
2019-05-13T13:54:32.785Z,53.70
2019-05-13T13:57:02.552Z,54.00
2019-05-13T13:59:35.871Z,54.10
2019-05-13T14:02:06.997Z,54.30
2019-05-13T14:04:38.922Z,53.70
2019-05-13T14:07:28.192Z,51.70
2019-05-13T14:09:43.714Z,51.30
2019-05-13T14:12:14.684Z,51.50
2019-05-13T14:14:45.718Z,51.30
2019-05-13T14:17:21.813Z,52.50
2019-05-13T14:19:52.519Z,52.20
2019-05-13T14:22:23.959Z,51.00
2019-05-13T14:24:56.172Z,51.30
2019-05-13T14:27:27.565Z,50.90
2019-05-13T14:30:01.380Z,50.80
2019-05-13T14:32:32.913Z,50.50
2019-05-13T14:35:03.919Z,49.90
2019-05-13T14:37:34.284Z,49.20
2019-05-13T14:40:06.025Z,49.40
2019-05-13T14:42:37.816Z,48.00
2019-05-13T14:45:11.948Z,46.60
2019-05-13T14:47:43.026Z,46.20
2019-05-13T14:50:14.118Z,46.70
2019-05-13T14:52:45.558Z,49.60
2019-05-13T14:55:17.030Z,49.90
2019-05-13T14:57:48.323Z,51.20
2019-05-13T15:00:22.111Z,51.50
2019-05-13T15:02:53.252Z,51.90
2019-05-13T15:05:24.740Z,49.80
2019-05-13T15:07:55.822Z,48.50
2019-05-13T15:10:26.953Z,49.30
2019-05-13T15:12:58.839Z,49.80
2019-05-13T15:15:31.703Z,49.00
2019-05-13T15:18:02.990Z,47.70
2019-05-13T15:20:34.381Z,45.80
2019-05-13T15:23:05.053Z,44.00
2019-05-13T15:25:36.535Z,43.30
2019-05-13T15:28:07.531Z,41.10
2019-05-13T15:30:38.869Z,41.00
2019-05-13T15:33:10.223Z,43.00
2019-05-13T15:35:41.969Z,46.40
2019-05-13T15:38:13.303Z,47.50
2019-05-13T15:40:43.959Z,47.70
2019-05-13T15:43:15.085Z,48.70
2019-05-13T15:45:46.451Z,50.40
2019-05-13T15:48:17.413Z,50.60
2019-05-13T15:50:51.344Z,50.40
2019-05-13T15:53:23.043Z,50.80
2019-05-13T15:55:54.710Z,50.20
2019-05-13T15:58:38.450Z,49.10
2019-05-13T16:01:01.924Z,46.90
2019-05-13T16:03:32.144Z,44.10
2019-05-13T16:06:03.596Z,42.60
2019-05-13T16:08:35.369Z,41.00
2019-05-13T16:11:33.542Z,40.60
2019-05-13T16:14:05.020Z,39.80
2019-05-13T16:16:35.656Z,37.50
2019-05-13T16:19:07.667Z,40.30
2019-05-13T16:21:41.348Z,41.80
2019-05-13T16:24:14.033Z,43.60
2019-05-13T16:26:45.685Z,45.50
2019-05-13T16:29:17.364Z,47.00
2019-05-13T16:31:48.604Z,47.00
2019-05-13T16:34:22.264Z,47.20
2019-05-13T16:36:53.211Z,47.30
2019-05-13T16:39:24.191Z,48.40
2019-05-13T16:41:55.224Z,48.60
2019-05-13T16:44:26.830Z,47.00
2019-05-13T16:46:58.015Z,47.10
2019-05-13T16:49:31.700Z,47.40
2019-05-13T16:52:02.890Z,47.10
2019-05-13T16:54:35.648Z,47.00
2019-05-13T16:57:07.923Z,47.40
2019-05-13T16:59:41.025Z,47.90
2019-05-13T17:02:13.106Z,48.40
2019-05-13T17:04:52.116Z,49.10
2019-05-13T17:07:23.814Z,49.50
2019-05-13T17:10:03.768Z,49.40
2019-05-13T17:12:36.030Z,50.30
2019-05-13T17:15:07.706Z,49.50
2019-05-13T17:17:40.996Z,50.10
2019-05-13T17:20:15.168Z,50.40
2019-05-13T17:22:46.384Z,50.40
2019-05-13T17:25:17.118Z,50.50
2019-05-13T17:27:48.660Z,50.40
2019-05-13T17:30:21.965Z,49.90
2019-05-13T17:32:53.114Z,50.60
2019-05-13T17:35:24.699Z,49.80
2019-05-13T17:37:56.253Z,50.10
2019-05-13T17:40:27.606Z,49.60
2019-05-13T17:42:58.589Z,50.30
2019-05-13T17:45:31.298Z,50.30
2019-05-13T17:48:02.663Z,50.70
2019-05-13T17:50:33.983Z,49.50
2019-05-13T17:53:05.464Z,50.20
2019-05-13T17:55:37.227Z,50.40
2019-05-13T17:58:11.510Z,51.90
2019-05-13T18:00:44.144Z,52.40
2019-05-13T18:03:15.563Z,51.60
2019-05-13T18:05:46.854Z,50.30
2019-05-13T18:08:19.617Z,50.40
2019-05-13T18:10:51.485Z,51.00
2019-05-13T18:13:23.261Z,51.90
2019-05-13T18:15:54.530Z,51.80
2019-05-13T18:18:39.125Z,52.30
2019-05-13T18:20:58.139Z,51.10
2019-05-13T18:23:30.131Z,51.70
2019-05-13T18:26:02.217Z,53.00
2019-05-13T18:28:33.639Z,52.50
2019-05-13T18:31:04.684Z,53.00
2019-05-13T18:33:36.176Z,53.30
2019-05-13T18:36:06.882Z,53.10
2019-05-13T18:38:39.241Z,53.10
2019-05-13T18:41:12.086Z,54.40
2019-05-13T18:43:45.435Z,54.90
2019-05-13T18:46:26.476Z,56.00
2019-05-13T18:49:02.401Z,56.20
2019-05-13T18:51:34.814Z,57.80
2019-05-13T18:54:08.003Z,59.10
2019-05-13T18:56:41.584Z,60.20
2019-05-13T18:59:12.778Z,59.10
2019-05-13T19:01:43.214Z,59.50
2019-05-13T19:04:17.810Z,61.50
2019-05-13T19:06:51.749Z,61.70
2019-05-13T19:09:22.447Z,68.20
2019-05-13T19:11:55.025Z,70.40
2019-05-13T19:14:26.894Z,72.00
2019-05-13T19:17:06.910Z,72.70
2019-05-13T19:19:38.414Z,71.30
2019-05-13T19:22:12.120Z,72.20
2019-05-13T19:24:43.118Z,72.00
2019-05-13T19:27:15.010Z,73.40
2019-05-13T19:29:46.841Z,76.60
2019-05-13T19:32:21.757Z,75.90
2019-05-13T19:34:55.824Z,77.50
2019-05-13T19:37:27.718Z,78.50
2019-05-13T19:40:05.578Z,79.90
2019-05-13T19:42:46.213Z,79.50
2019-05-13T19:45:17.957Z,79.90
2019-05-13T19:47:48.988Z,81.20
2019-05-13T19:50:22.138Z,81.30
2019-05-13T19:52:53.250Z,82.30
2019-05-13T19:55:24.746Z,83.00
2019-05-13T19:57:56.998Z,83.10
2019-05-13T20:00:34.616Z,84.00
2019-05-13T20:03:12.114Z,85.10
2019-05-13T20:05:43.472Z,84.70
2019-05-13T20:08:14.747Z,84.90
2019-05-13T20:10:51.463Z,83.90
2019-05-13T20:13:23.956Z,84.60
2019-05-13T20:16:22.170Z,83.60
2019-05-13T20:20:05.738Z,83.20
2019-05-13T20:22:38.247Z,83.30
2019-05-13T20:25:13.318Z,82.80
2019-05-13T20:27:45.295Z,80.30
2019-05-13T20:30:16.964Z,81.10
2019-05-13T20:32:51.028Z,81.80
2019-05-13T20:35:21.962Z,79.90
2019-05-13T20:37:56.232Z,81.80
2019-05-13T20:40:27.661Z,80.70
2019-05-13T20:42:59.018Z,82.70
2019-05-13T20:45:31.199Z,80.70
2019-05-13T20:48:02.668Z,83.10
2019-05-13T20:50:34.237Z,83.30
2019-05-13T20:53:05.423Z,83.60
2019-05-13T20:55:42.385Z,82.50
2019-05-13T20:58:21.328Z,83.90
2019-05-13T21:00:52.650Z,84.70
2019-05-13T21:03:24.426Z,84.60
2019-05-13T21:05:56.272Z,85.40
2019-05-13T21:08:28.328Z,86.50
2019-05-13T21:11:02.284Z,87.50
2019-05-13T21:13:43.699Z,87.90
2019-05-13T21:16:15.789Z,88.40
2019-05-13T21:18:52.455Z,88.80
2019-05-13T21:21:24.175Z,87.80
2019-05-13T21:24:34.075Z,87.70
2019-05-13T21:27:11.885Z,87.70
2019-05-13T21:30:01.249Z,88.20
2019-05-13T21:33:05.088Z,86.10
2019-05-13T21:35:42.086Z,86.70
2019-05-13T21:38:17.003Z,86.20
2019-05-13T21:40:55.928Z,86.60
2019-05-13T21:43:32.392Z,85.10
2019-05-13T21:46:06.014Z,85.10
2019-05-13T21:48:41.640Z,87.30
2019-05-13T21:51:15.662Z,87.00
2019-05-13T21:53:51.856Z,85.90
2019-05-13T21:56:26.629Z,84.20
2019-05-13T21:58:57.926Z,84.10
2019-05-13T22:01:33.077Z,85.20
2019-05-13T22:04:08.540Z,85.40
2019-05-13T22:06:41.642Z,83.90
2019-05-13T22:09:15.018Z,85.10
2019-05-13T22:11:54.901Z,82.90
2019-05-13T22:14:26.692Z,80.30
2019-05-13T22:17:02.664Z,79.40
2019-05-13T22:19:35.202Z,80.50
2019-05-13T22:22:06.413Z,80.40
2019-05-13T22:24:41.990Z,80.40
2019-05-13T22:27:13.417Z,79.70
2019-05-13T22:29:44.122Z,79.40
2019-05-13T22:32:17.185Z,77.60
2019-05-13T22:34:51.351Z,76.40
2019-05-13T22:37:25.993Z,74.80
2019-05-13T22:40:04.177Z,73.70
2019-05-13T22:42:41.534Z,72.90
2019-05-13T22:45:21.943Z,72.80
2019-05-13T22:48:02.501Z,72.40
2019-05-13T22:50:33.896Z,71.10
2019-05-13T22:53:12.479Z,70.20
2019-05-13T22:55:44.394Z,70.20
2019-05-13T22:58:16.058Z,69.70
2019-05-13T23:00:51.669Z,68.40
2019-05-13T23:03:23.148Z,69.10
2019-05-13T23:05:55.359Z,67.60
2019-05-13T23:08:33.327Z,67.70
2019-05-13T23:11:05.112Z,66.90
2019-05-13T23:13:37.078Z,65.90
2019-05-13T23:16:07.678Z,66.00
2019-05-13T23:18:42.128Z,65.10
2019-05-13T23:21:16.874Z,65.10
2019-05-13T23:23:53.716Z,64.60
2019-05-13T23:26:24.507Z,64.70
2019-05-13T23:29:03.126Z,65.10
2019-05-13T23:31:35.712Z,65.20
2019-05-13T23:34:06.900Z,64.80
2019-05-13T23:36:38.308Z,65.20
2019-05-13T23:39:17.389Z,65.10
2019-05-13T23:41:48.977Z,65.50
2019-05-13T23:44:26.992Z,65.20
2019-05-13T23:46:53.824Z,65.10
2019-05-13T23:49:24.790Z,64.90
2019-05-13T23:51:56.378Z,64.80
2019-05-13T23:54:28.117Z,64.40
2019-05-13T23:57:01.208Z,64.60
2019-05-13T23:59:32.842Z,64.40
